Time;durP1;ratioP1;P1;durP2;ratioP2;P2;SDS_P1;SDS_P2;PMS_P1;PMS_P2;Temp;Humidity;BMP_temperature;BMP_pressure;BME280_temperature;BME280_humidity;BME280_pressure;Samples;Min_cycle;Max_cycle;Signal;HPM_P1;HPM_P2
2023/03/17 00:01:10;;;;;;;;;;;7.40;99.90;;;;;;5101932;28;20031;-80
2023/03/17 00:03:37;;;;;;;;;;;7.40;99.90;;;;;;5085758;28;19938;-81
2023/03/17 00:06:03;;;;;;;;;;;7.40;99.90;;;;;;5083820;28;19924;-81
2023/03/17 00:08:33;;;;;;;;;;;7.40;99.90;;;;;;5102789;27;20415;-81
2023/03/17 00:10:58;;;;;;;;;;;7.50;99.90;;;;;;5090072;28;19927;-81
2023/03/17 00:13:25;;;;;;;;;;;7.40;99.90;;;;;;5087717;28;20014;-81
2023/03/17 00:15:52;;;;;;;;;;;7.50;99.90;;;;;;5102214;28;19969;-80
2023/03/17 00:18:19;;;;;;;;;;;7.50;99.90;;;;;;5114000;27;19923;-80
2023/03/17 00:20:45;;;;;;;;;;;7.50;99.90;;;;;;5104721;28;19971;-80
2023/03/17 00:23:14;;;;;;;;;;;7.50;99.90;;;;;;5086050;28;19924;-81
2023/03/17 00:25:42;;;;;;;;;;;7.50;99.90;;;;;;5086669;28;19992;-80
2023/03/17 00:28:11;;;;;;;;;;;7.50;99.90;;;;;;5085571;28;19928;-80
2023/03/17 00:30:37;;;;;;;;;;;7.50;99.90;;;;;;5079629;28;19923;-80
2023/03/17 00:33:03;;;;;;;;;;;7.50;99.90;;;;;;5085327;28;19978;-80
2023/03/17 00:35:29;;;;;;;;;;;7.50;99.90;;;;;;5086166;28;20358;-80
2023/03/17 00:37:56;;;;;;;;;;;7.50;99.90;;;;;;5085989;28;19938;-80
2023/03/17 00:40:24;;;;;;;;;;;7.50;99.90;;;;;;5088846;27;19933;-80
2023/03/17 00:42:50;;;;;;;;;;;7.50;99.90;;;;;;5086435;28;20319;-80
2023/03/17 00:45:16;;;;;;;;;;;7.40;99.90;;;;;;5085336;28;19991;-80
2023/03/17 00:47:42;;;;;;;;;;;7.40;99.90;;;;;;5084193;28;19924;-80
2023/03/17 00:50:13;;;;;;;;;;;7.40;99.90;;;;;;5085514;28;19939;-80
2023/03/17 00:52:39;;;;;;;;;;;7.50;99.90;;;;;;5101733;28;19955;-80
2023/03/17 00:55:06;;;;;;;;;;;7.40;99.90;;;;;;5076539;28;19925;-80
2023/03/17 00:57:33;;;;;;;;;;;7.40;99.90;;;;;;5129840;28;19923;-81
2023/03/17 00:59:58;;;;;;;;;;;7.40;99.90;;;;;;5103150;28;19924;-80
2023/03/17 01:02:24;;;;;;;;;;;7.40;99.90;;;;;;5083134;28;20383;-80
2023/03/17 01:04:50;;;;;;;;;;;7.30;99.90;;;;;;5099691;28;19963;-81
2023/03/17 01:07:15;;;;;;;;;;;7.40;99.90;;;;;;5107330;28;20374;-80
2023/03/17 01:09:41;;;;;;;;;;;7.40;99.90;;;;;;5068314;28;19970;-80
2023/03/17 01:12:09;;;;;;;;;;;7.40;99.90;;;;;;5077973;28;20019;-80
2023/03/17 01:14:35;;;;;;;;;;;7.40;99.90;;;;;;5081422;28;20044;-80
2023/03/17 01:17:01;;;;;;;;;;;7.40;99.90;;;;;;5101333;28;19970;-80
2023/03/17 01:19:26;;;;;;;;;;;7.40;99.90;;;;;;5082411;28;19924;-81
2023/03/17 01:21:52;;;;;;;;;;;7.40;99.90;;;;;;5086080;28;19928;-81
2023/03/17 01:24:18;;;;;;;;;;;7.40;99.90;;;;;;5095002;28;20331;-81
2023/03/17 01:26:44;;;;;;;;;;;7.40;99.90;;;;;;5120366;28;19932;-81
2023/03/17 01:29:10;;;;;;;;;;;7.40;99.90;;;;;;5095545;28;19979;-81
2023/03/17 01:31:36;;;;;;;;;;;7.50;99.90;;;;;;5098042;28;19927;-81
2023/03/17 01:34:03;;;;;;;;;;;7.40;99.90;;;;;;5065738;28;19924;-81
2023/03/17 01:36:28;;;;;;;;;;;7.50;99.90;;;;;;5107276;28;19928;-81
2023/03/17 01:38:54;;;;;;;;;;;7.40;99.90;;;;;;5116421;28;19945;-81
2023/03/17 01:41:19;;;;;;;;;;;7.50;99.90;;;;;;5082271;28;19946;-81
2023/03/17 01:43:45;;;;;;;;;;;7.40;99.90;;;;;;5111820;28;19923;-81
2023/03/17 01:46:16;;;;;;;;;;;7.40;99.90;;;;;;5069665;28;20013;-81
2023/03/17 01:48:45;;;;;;;;;;;7.40;99.90;;;;;;5079059;28;19974;-81
2023/03/17 01:51:15;;;;;;;;;;;7.40;99.90;;;;;;5106749;27;20050;-80
2023/03/17 01:53:42;;;;;;;;;;;7.40;99.90;;;;;;5085976;28;19924;-80
2023/03/17 01:56:08;;;;;;;;;;;7.40;99.90;;;;;;5086885;28;20251;-80
2023/03/17 01:58:34;;;;;;;;;;;7.30;99.90;;;;;;5074350;28;20451;-81
2023/03/17 02:01:00;;;;;;;;;;;7.30;99.90;;;;;;5090685;27;19927;-80
2023/03/17 02:03:26;;;;;;;;;;;7.30;99.90;;;;;;5073059;28;20000;-81
2023/03/17 02:05:53;;;;;;;;;;;7.40;99.90;;;;;;5091107;27;19932;-81
2023/03/17 02:08:19;;;;;;;;;;;7.30;99.90;;;;;;5105049;28;19974;-80
2023/03/17 02:10:48;;;;;;;;;;;7.40;99.90;;;;;;5075280;28;19931;-80
2023/03/17 02:13:13;;;;;;;;;;;7.40;99.90;;;;;;5099736;28;19928;-80
2023/03/17 02:15:50;;;;;;;;;;;7.30;99.90;;;;;;5095553;28;19935;-81
2023/03/17 02:18:17;;;;;;;;;;;7.30;99.90;;;;;;5101431;27;20431;-81
2023/03/17 02:20:45;;;;;;;;;;;7.30;99.90;;;;;;5105631;28;20378;-81
2023/03/17 02:23:14;;;;;;;;;;;7.30;99.90;;;;;;5111314;28;19987;-81
2023/03/17 02:25:40;;;;;;;;;;;7.30;99.90;;;;;;5081787;27;19923;-80
2023/03/17 02:28:09;;;;;;;;;;;7.30;99.90;;;;;;5094829;28;19973;-80
2023/03/17 02:30:35;;;;;;;;;;;7.30;99.90;;;;;;5087790;28;19927;-80
2023/03/17 02:33:02;;;;;;;;;;;7.30;99.90;;;;;;5086831;28;19979;-81
2023/03/17 02:35:28;;;;;;;;;;;7.30;99.90;;;;;;5087845;27;19942;-81
2023/03/17 02:37:54;;;;;;;;;;;7.30;99.90;;;;;;5097472;28;19927;-81
2023/03/17 02:40:19;;;;;;;;;;;7.30;99.90;;;;;;5086998;28;19931;-80
2023/03/17 02:42:45;;;;;;;;;;;7.30;99.90;;;;;;5070826;28;19931;-81
2023/03/17 02:45:11;;;;;;;;;;;7.30;99.90;;;;;;5085944;28;19972;-80
2023/03/17 02:47:37;;;;;;;;;;;7.30;99.90;;;;;;5100137;28;20001;-81
2023/03/17 02:50:04;;;;;;;;;;;7.30;99.90;;;;;;5086080;28;19939;-81
2023/03/17 02:52:30;;;;;;;;;;;7.30;99.90;;;;;;5086504;28;19977;-80
2023/03/17 02:54:56;;;;;;;;;;;7.30;99.90;;;;;;5082170;27;19928;-81
2023/03/17 02:57:22;;;;;;;;;;;7.20;99.90;;;;;;5094575;27;19963;-81
2023/03/17 02:59:47;;;;;;;;;;;7.20;99.90;;;;;;5102260;28;19959;-81
2023/03/17 03:02:13;;;;;;;;;;;7.30;99.90;;;;;;5066673;28;19982;-81
2023/03/17 03:04:39;;;;;;;;;;;7.30;99.90;;;;;;5079996;28;20058;-80
2023/03/17 03:07:04;;;;;;;;;;;7.30;99.90;;;;;;5086637;28;20047;-80
2023/03/17 03:09:30;;;;;;;;;;;7.30;99.90;;;;;;5081420;28;19934;-80
2023/03/17 03:11:56;;;;;;;;;;;7.30;99.90;;;;;;5077919;28;20030;-81
2023/03/17 03:14:22;;;;;;;;;;;7.20;99.90;;;;;;5115639;28;19924;-81
2023/03/17 03:16:47;;;;;;;;;;;7.30;99.90;;;;;;5100972;28;19983;-80
2023/03/17 03:19:13;;;;;;;;;;;7.30;99.90;;;;;;5066138;28;20193;-81
2023/03/17 03:21:38;;;;;;;;;;;7.20;99.90;;;;;;5099798;27;19928;-81
2023/03/17 03:24:05;;;;;;;;;;;7.20;99.90;;;;;;5077378;27;19923;-80
2023/03/17 03:26:31;;;;;;;;;;;7.20;99.90;;;;;;5102355;28;20733;-81
2023/03/17 03:28:57;;;;;;;;;;;7.20;99.90;;;;;;5078810;28;19927;-81
2023/03/17 03:31:23;;;;;;;;;;;7.20;99.90;;;;;;5070359;28;19927;-81
2023/03/17 03:33:48;;;;;;;;;;;7.20;99.90;;;;;;5079820;28;20354;-81
2023/03/17 03:36:14;;;;;;;;;;;7.20;99.90;;;;;;5077739;28;19924;-81
2023/03/17 03:38:40;;;;;;;;;;;7.20;99.90;;;;;;5070111;28;19972;-81
2023/03/17 03:41:06;;;;;;;;;;;7.20;99.90;;;;;;5101300;27;19924;-81
2023/03/17 03:43:32;;;;;;;;;;;7.20;99.90;;;;;;5079789;28;19923;-80
2023/03/17 03:45:57;;;;;;;;;;;7.20;99.90;;;;;;5071966;28;19998;-80
2023/03/17 03:48:23;;;;;;;;;;;7.10;99.90;;;;;;5071846;28;19928;-80
2023/03/17 03:50:49;;;;;;;;;;;7.10;99.90;;;;;;5089508;27;19923;-80
2023/03/17 03:53:14;;;;;;;;;;;7.10;99.90;;;;;;5072534;28;19924;-80
2023/03/17 03:55:40;;;;;;;;;;;7.10;99.90;;;;;;5072674;28;20413;-80
2023/03/17 03:58:06;;;;;;;;;;;7.10;99.90;;;;;;5067752;28;19949;-81
2023/03/17 04:00:32;;;;;;;;;;;7.10;99.90;;;;;;5083256;27;19938;-80
2023/03/17 04:02:57;;;;;;;;;;;7.00;99.90;;;;;;5071509;28;19928;-80
2023/03/17 04:05:23;;;;;;;;;;;7.00;99.90;;;;;;5077601;28;20295;-81
2023/03/17 04:07:49;;;;;;;;;;;7.00;99.90;;;;;;5062476;28;19928;-81
2023/03/17 04:10:15;;;;;;;;;;;7.00;99.90;;;;;;5097613;28;19930;-82
2023/03/17 04:12:41;;;;;;;;;;;6.90;99.90;;;;;;5082850;27;19983;-81
2023/03/17 04:15:07;;;;;;;;;;;6.90;99.90;;;;;;5130740;27;19947;-81
2023/03/17 04:17:33;;;;;;;;;;;6.90;99.90;;;;;;5095006;27;19928;-80
2023/03/17 04:19:59;;;;;;;;;;;6.90;99.90;;;;;;5081859;28;19997;-80
2023/03/17 04:22:25;;;;;;;;;;;6.80;99.90;;;;;;5087872;28;20338;-80
2023/03/17 04:24:51;;;;;;;;;;;6.80;99.90;;;;;;5085860;28;19963;-80
2023/03/17 04:27:16;;;;;;;;;;;6.90;99.90;;;;;;5077664;28;19971;-80
2023/03/17 04:29:42;;;;;;;;;;;6.90;99.90;;;;;;5130847;27;19949;-80
2023/03/17 04:32:08;;;;;;;;;;;6.90;99.90;;;;;;5085556;28;19943;-80
2023/03/17 04:34:34;;;;;;;;;;;6.90;99.90;;;;;;5103158;28;19934;-80
2023/03/17 04:37:00;;;;;;;;;;;6.90;99.90;;;;;;5068519;28;19923;-80
2023/03/17 04:39:26;;;;;;;;;;;6.90;99.90;;;;;;5079062;28;19950;-80
2023/03/17 04:41:52;;;;;;;;;;;6.90;99.90;;;;;;5116445;28;19924;-79
2023/03/17 04:44:17;;;;;;;;;;;6.90;99.90;;;;;;5096881;28;20306;-80
2023/03/17 04:46:43;;;;;;;;;;;7.00;99.90;;;;;;5080714;28;19923;-80
2023/03/17 04:49:08;;;;;;;;;;;7.00;99.90;;;;;;5089917;28;19923;-80
2023/03/17 04:51:35;;;;;;;;;;;7.00;99.90;;;;;;5068053;28;20007;-81
2023/03/17 04:54:01;;;;;;;;;;;7.00;99.90;;;;;;5079107;28;20006;-80
2023/03/17 04:56:27;;;;;;;;;;;7.00;99.90;;;;;;5083781;28;20429;-80
2023/03/17 04:58:52;;;;;;;;;;;7.00;99.90;;;;;;5077110;28;19928;-80
2023/03/17 05:01:18;;;;;;;;;;;7.00;99.90;;;;;;5070351;28;19959;-80
2023/03/17 05:03:44;;;;;;;;;;;7.00;99.90;;;;;;5081669;28;19939;-80
2023/03/17 05:06:10;;;;;;;;;;;7.00;99.90;;;;;;5091465;28;19934;-80
2023/03/17 05:08:35;;;;;;;;;;;7.00;99.90;;;;;;5073771;28;19924;-80
2023/03/17 05:11:01;;;;;;;;;;;7.00;99.90;;;;;;5066600;28;19931;-80
2023/03/17 05:13:26;;;;;;;;;;;7.00;99.90;;;;;;5070067;28;19986;-80
2023/03/17 05:15:53;;;;;;;;;;;7.00;99.90;;;;;;5103666;28;20337;-80
2023/03/17 05:18:20;;;;;;;;;;;7.00;99.90;;;;;;5081485;28;19930;-80
2023/03/17 05:20:46;;;;;;;;;;;7.00;99.90;;;;;;5101184;28;19924;-81
2023/03/17 05:23:12;;;;;;;;;;;7.00;99.90;;;;;;5072801;28;19931;-80
2023/03/17 05:25:39;;;;;;;;;;;7.00;99.90;;;;;;5081011;27;19924;-80
2023/03/17 05:28:05;;;;;;;;;;;6.90;99.90;;;;;;5076991;28;19924;-80
2023/03/17 05:30:31;;;;;;;;;;;6.90;99.90;;;;;;5129514;27;19928;-80
2023/03/17 05:32:58;;;;;;;;;;;6.90;99.90;;;;;;5078854;28;19931;-80
2023/03/17 05:35:23;;;;;;;;;;;6.90;99.90;;;;;;5072231;27;19931;-80
2023/03/17 05:37:49;;;;;;;;;;;7.00;99.90;;;;;;5101164;28;20433;-80
2023/03/17 05:40:15;;;;;;;;;;;7.00;99.90;;;;;;5129568;27;19936;-80
2023/03/17 05:42:41;;;;;;;;;;;7.00;99.90;;;;;;5089182;28;19971;-80
2023/03/17 05:45:07;;;;;;;;;;;7.00;99.90;;;;;;5071536;28;19965;-80
2023/03/17 05:47:33;;;;;;;;;;;7.00;99.90;;;;;;5096986;28;19931;-80
2023/03/17 05:49:59;;;;;;;;;;;7.00;99.90;;;;;;5076908;28;19931;-80
2023/03/17 05:52:25;;;;;;;;;;;7.00;99.90;;;;;;5131168;27;19928;-80
2023/03/17 05:54:51;;;;;;;;;;;7.00;99.90;;;;;;5098247;28;19928;-80
2023/03/17 05:57:16;;;;;;;;;;;7.00;99.90;;;;;;5084236;28;19924;-80
2023/03/17 05:59:42;;;;;;;;;;;7.00;99.90;;;;;;5072486;28;19934;-81
2023/03/17 06:02:08;;;;;;;;;;;7.00;99.90;;;;;;5072646;27;20010;-80
2023/03/17 06:04:34;;;;;;;;;;;7.00;99.90;;;;;;5095946;28;19927;-80
2023/03/17 06:06:59;;;;;;;;;;;7.00;99.90;;;;;;5090398;27;19924;-80
2023/03/17 06:09:25;;;;;;;;;;;7.00;99.90;;;;;;5068145;28;19924;-80
2023/03/17 06:11:51;;;;;;;;;;;7.10;99.90;;;;;;5088535;28;20013;-80
2023/03/17 06:14:17;;;;;;;;;;;7.10;99.90;;;;;;5086883;28;19923;-80
2023/03/17 06:16:43;;;;;;;;;;;7.20;99.90;;;;;;5067775;28;19924;-80
2023/03/17 06:19:08;;;;;;;;;;;7.30;99.90;;;;;;5068620;28;19939;-80
2023/03/17 06:21:34;;;;;;;;;;;7.40;99.90;;;;;;5098715;28;19965;-80
2023/03/17 06:24:00;;;;;;;;;;;7.50;99.90;;;;;;5071258;28;20268;-80
2023/03/17 06:26:26;;;;;;;;;;;7.60;99.90;;;;;;5085592;28;20283;-80
2023/03/17 06:28:51;;;;;;;;;;;7.70;99.90;;;;;;5100494;27;19928;-80
2023/03/17 06:31:17;;;;;;;;;;;7.70;99.90;;;;;;5130688;27;19924;-80
2023/03/17 06:33:42;;;;;;;;;;;7.80;99.90;;;;;;5088296;28;19935;-80
2023/03/17 06:36:08;;;;;;;;;;;7.80;99.90;;;;;;5087630;28;19924;-80
2023/03/17 06:38:34;;;;;;;;;;;7.80;99.90;;;;;;5105652;27;19933;-81
2023/03/17 06:40:59;;;;;;;;;;;7.90;99.90;;;;;;5087609;28;19971;-80
2023/03/17 06:43:25;;;;;;;;;;;7.90;99.90;;;;;;5072044;28;19924;-80
2023/03/17 06:45:51;;;;;;;;;;;8.00;99.90;;;;;;5073106;28;19928;-80
2023/03/17 06:48:17;;;;;;;;;;;8.00;99.90;;;;;;5131206;27;19924;-80
2023/03/17 06:50:43;;;;;;;;;;;8.00;99.90;;;;;;5091328;27;19934;-80
2023/03/17 06:53:10;;;;;;;;;;;8.00;99.90;;;;;;5084833;28;19924;-80
2023/03/17 06:55:35;;;;;;;;;;;8.00;99.90;;;;;;5087095;28;19955;-80
2023/03/17 06:58:02;;;;;;;;;;;8.00;99.90;;;;;;5075940;28;19935;-80
2023/03/17 07:00:29;;;;;;;;;;;8.10;99.90;;;;;;5117217;28;19939;-80
2023/03/17 07:02:55;;;;;;;;;;;8.10;99.90;;;;;;5072927;28;19928;-80
2023/03/17 07:05:21;;;;;;;;;;;8.10;99.90;;;;;;5090800;28;19924;-80
2023/03/17 07:07:48;;;;;;;;;;;8.20;99.90;;;;;;5066865;27;20410;-80
2023/03/17 07:10:16;;;;;;;;;;;8.20;99.90;;;;;;5101462;28;19991;-80
2023/03/17 07:12:41;;;;;;;;;;;8.20;99.90;;;;;;5106296;27;19924;-80
2023/03/17 07:15:08;;;;;;;;;;;8.30;99.90;;;;;;5102431;28;20429;-80
2023/03/17 07:17:34;;;;;;;;;;;8.20;99.90;;;;;;5099697;28;19928;-80
2023/03/17 07:19:59;;;;;;;;;;;8.30;99.90;;;;;;5082604;27;19924;-80
2023/03/17 07:22:25;;;;;;;;;;;8.40;99.90;;;;;;5083858;28;19924;-80
2023/03/17 07:24:52;;;;;;;;;;;8.40;99.90;;;;;;5108290;28;19923;-80
2023/03/17 07:27:17;;;;;;;;;;;8.40;99.90;;;;;;5096481;28;19934;-80
2023/03/17 07:29:43;;;;;;;;;;;8.40;99.90;;;;;;5115073;27;19923;-80
2023/03/17 07:32:09;;;;;;;;;;;8.40;99.90;;;;;;5068798;27;19968;-80
2023/03/17 07:34:36;;;;;;;;;;;8.50;99.90;;;;;;5128288;27;19932;-82
2023/03/17 07:37:01;;;;;;;;;;;8.60;99.90;;;;;;5082272;28;20010;-81
2023/03/17 07:39:27;;;;;;;;;;;8.60;99.90;;;;;;5084786;28;19971;-82
2023/03/17 07:41:54;;;;;;;;;;;8.60;99.90;;;;;;5102468;28;19924;-82
2023/03/17 07:44:23;;;;;;;;;;;8.70;99.90;;;;;;5106551;27;19948;-82
2023/03/17 07:46:50;;;;;;;;;;;8.80;99.90;;;;;;5096550;27;19963;-81
2023/03/17 07:49:16;;;;;;;;;;;8.90;99.90;;;;;;5087018;27;19924;-81
2023/03/17 07:51:42;;;;;;;;;;;9.10;99.90;;;;;;5069035;27;20558;-83
2023/03/17 07:54:11;;;;;;;;;;;9.50;99.90;;;;;;5077864;28;19939;-82
2023/03/17 07:56:38;;;;;;;;;;;10.00;99.90;;;;;;5079047;28;19924;-83
2023/03/17 07:59:05;;;;;;;;;;;10.20;99.90;;;;;;5109921;27;19931;-81
2023/03/17 08:01:31;;;;;;;;;;;10.10;99.90;;;;;;5101213;28;20009;-83
2023/03/17 08:03:56;;;;;;;;;;;10.10;99.90;;;;;;5089842;28;19924;-82
2023/03/17 08:06:24;;;;;;;;;;;10.00;99.90;;;;;;5110488;28;19930;-83
2023/03/17 08:08:50;;;;;;;;;;;10.10;99.90;;;;;;5089140;28;19931;-81
2023/03/17 08:11:16;;;;;;;;;;;10.30;99.90;;;;;;5078597;28;19924;-82
2023/03/17 08:13:42;;;;;;;;;;;10.50;99.90;;;;;;5058499;28;19947;-83
2023/03/17 08:16:08;;;;;;;;;;;10.70;99.90;;;;;;5073987;27;20745;-82
2023/03/17 08:18:33;;;;;;;;;;;10.90;99.90;;;;;;5072991;27;19942;-82
2023/03/17 08:20:59;;;;;;;;;;;10.90;99.90;;;;;;5066706;28;19988;-83
2023/03/17 08:23:25;;;;;;;;;;;11.00;99.90;;;;;;5087185;27;20282;-83
2023/03/17 08:25:55;;;;;;;;;;;11.10;99.90;;;;;;5108753;28;19947;-82
2023/03/17 08:28:21;;;;;;;;;;;11.00;99.90;;;;;;5089380;28;20401;-83
2023/03/17 08:30:47;;;;;;;;;;;11.00;99.90;;;;;;5076631;27;19925;-83
2023/03/17 08:33:13;;;;;;;;;;;11.00;99.90;;;;;;5078754;28;19924;-82
2023/03/17 08:35:40;;;;;;;;;;;10.90;99.90;;;;;;5065058;28;19928;-82
2023/03/17 08:38:06;;;;;;;;;;;11.00;99.90;;;;;;5102046;28;19938;-82
2023/03/17 08:40:32;;;;;;;;;;;11.00;99.90;;;;;;5064339;28;20335;-83
2023/03/17 08:42:58;;;;;;;;;;;11.00;99.90;;;;;;5101108;28;19970;-83
2023/03/17 08:45:24;;;;;;;;;;;11.00;99.90;;;;;;5084985;28;19928;-83
2023/03/17 08:47:50;;;;;;;;;;;11.10;99.90;;;;;;5084860;28;19923;-83
2023/03/17 08:50:17;;;;;;;;;;;11.10;99.90;;;;;;5114551;28;19924;-83
2023/03/17 08:52:44;;;;;;;;;;;11.10;99.90;;;;;;5099984;28;19927;-83
2023/03/17 08:55:11;;;;;;;;;;;11.20;99.90;;;;;;5092015;28;20393;-83
2023/03/17 08:57:36;;;;;;;;;;;11.20;99.30;;;;;;5083783;28;19924;-84
2023/03/17 09:00:09;;;;;;;;;;;11.30;99.90;;;;;;5084385;28;20126;-83
2023/03/17 09:02:39;;;;;;;;;;;11.60;99.90;;;;;;5068569;28;19974;-83
2023/03/17 09:05:05;;;;;;;;;;;12.00;99.90;;;;;;5088283;28;19970;-84
2023/03/17 09:07:31;;;;;;;;;;;12.30;99.90;;;;;;5068801;28;19930;-83
2023/03/17 09:09:57;;;;;;;;;;;12.70;99.70;;;;;;5076227;28;19924;-84
2023/03/17 09:12:23;;;;;;;;;;;13.20;98.40;;;;;;5084978;28;20170;-83
2023/03/17 09:14:49;;;;;;;;;;;13.60;96.10;;;;;;5080322;28;19931;-84
2023/03/17 09:17:15;;;;;;;;;;;13.70;94.20;;;;;;5068884;28;19963;-84
2023/03/17 09:19:40;;;;;;;;;;;14.00;96.40;;;;;;5083998;28;19924;-84
2023/03/17 09:22:06;;;;;;;;;;;14.40;92.30;;;;;;5058533;28;19924;-84
2023/03/17 09:24:32;;;;;;;;;;;14.80;88.60;;;;;;5123881;28;19934;-85
2023/03/17 09:27:00;;;;;;;;;;;14.90;83.10;;;;;;5092217;28;19924;-84
2023/03/17 09:29:26;;;;;;;;;;;15.10;82.20;;;;;;5059040;28;19924;-85
2023/03/17 09:31:52;;;;;;;;;;;15.20;84.00;;;;;;5097407;28;19924;-84
2023/03/17 09:34:18;;;;;;;;;;;15.10;79.10;;;;;;5086675;28;19927;-84
2023/03/17 09:36:43;;;;;;;;;;;15.20;85.30;;;;;;5088475;28;19931;-85
2023/03/17 09:39:10;;;;;;;;;;;15.50;83.70;;;;;;5062972;28;20007;-84
2023/03/17 09:41:36;;;;;;;;;;;15.80;85.60;;;;;;5092207;28;19923;-84
2023/03/17 09:44:20;;;;;;;;;;;16.00;81.30;;;;;;5084146;28;19928;-84
2023/03/17 09:46:58;;;;;;;;;;;16.10;78.40;;;;;;5101357;28;19924;-83
2023/03/17 09:49:28;;;;;;;;;;;16.40;78.30;;;;;;5082353;28;19949;-84
2023/03/17 09:51:54;;;;;;;;;;;16.60;79.20;;;;;;5075678;28;19985;-84
2023/03/17 09:54:28;;;;;;;;;;;16.80;76.30;;;;;;5080993;28;19960;-84
2023/03/17 09:56:57;;;;;;;;;;;17.10;74.00;;;;;;5084332;28;19932;-85
2023/03/17 09:59:26;;;;;;;;;;;17.10;73.20;;;;;;5087796;28;19924;-84
2023/03/17 10:01:52;;;;;;;;;;;17.10;71.50;;;;;;5079381;28;20398;-84
2023/03/17 10:04:18;;;;;;;;;;;17.30;70.80;;;;;;5096203;28;19932;-85
2023/03/17 10:06:45;;;;;;;;;;;17.40;70.20;;;;;;5075847;28;19934;-85
2023/03/17 10:09:16;;;;;;;;;;;17.50;68.20;;;;;;5082163;28;19935;-86
2023/03/17 10:11:49;;;;;;;;;;;17.60;68.90;;;;;;5094926;28;19924;-85
2023/03/17 10:14:37;;;;;;;;;;;17.90;71.80;;;;;;5113848;28;20289;-85
2023/03/17 10:17:09;;;;;;;;;;;18.00;68.60;;;;;;5085726;28;19924;-85
2023/03/17 10:19:39;;;;;;;;;;;18.20;71.60;;;;;;5083995;28;20044;-86
2023/03/17 10:22:10;;;;;;;;;;;17.90;68.80;;;;;;5084823;28;19924;-85
2023/03/17 10:24:38;;;;;;;;;;;17.70;69.20;;;;;;5112077;28;19923;-85
2023/03/17 10:27:05;;;;;;;;;;;17.50;66.90;;;;;;5115155;28;19932;-85
2023/03/17 10:29:31;;;;;;;;;;;17.30;68.40;;;;;;5068363;27;19928;-86
2023/03/17 10:31:57;;;;;;;;;;;16.90;70.20;;;;;;5067718;28;20264;-85
2023/03/17 10:34:22;;;;;;;;;;;16.70;70.80;;;;;;5070041;28;20382;-85
2023/03/17 10:36:50;;;;;;;;;;;16.50;73.70;;;;;;5120052;28;19935;-85
2023/03/17 10:39:18;;;;;;;;;;;16.30;73.50;;;;;;5098455;28;20057;-86
2023/03/17 10:41:54;;;;;;;;;;;16.30;73.60;;;;;;5087049;28;19932;-86
2023/03/17 10:44:25;;;;;;;;;;;16.30;75.10;;;;;;5085847;28;19928;-86
2023/03/17 10:46:51;;;;;;;;;;;16.20;74.90;;;;;;5086937;28;19959;-86
2023/03/17 10:49:17;;;;;;;;;;;16.10;74.40;;;;;;5085624;28;19924;-86
2023/03/17 10:51:45;;;;;;;;;;;15.90;74.60;;;;;;5094171;27;19944;-86
2023/03/17 10:54:16;;;;;;;;;;;15.70;74.20;;;;;;5089812;27;19923;-85
2023/03/17 10:56:43;;;;;;;;;;;15.60;75.00;;;;;;5094295;27;19966;-86
2023/03/17 10:59:24;;;;;;;;;;;15.60;76.00;;;;;;5056372;28;19924;-87
2023/03/17 11:01:55;;;;;;;;;;;15.60;79.10;;;;;;5115086;28;19923;-85
2023/03/17 11:04:27;;;;;;;;;;;15.60;77.70;;;;;;5092727;28;19928;-87
2023/03/17 11:06:55;;;;;;;;;;;15.70;80.70;;;;;;5077756;28;19935;-86
2023/03/17 11:09:20;;;;;;;;;;;15.70;74.40;;;;;;5079090;28;19924;-86
2023/03/17 11:11:47;;;;;;;;;;;15.80;79.00;;;;;;5088520;28;20034;-86
2023/03/17 11:14:15;;;;;;;;;;;15.80;76.10;;;;;;5079734;28;19924;-86
2023/03/17 11:16:54;;;;;;;;;;;15.90;80.10;;;;;;5088963;28;19978;-86
2023/03/17 11:19:23;;;;;;;;;;;16.10;75.70;;;;;;5081231;28;19932;-86
2023/03/17 11:21:49;;;;;;;;;;;16.10;74.70;;;;;;5088640;27;20032;-86
2023/03/17 11:24:17;;;;;;;;;;;16.20;78.00;;;;;;5105086;28;19934;-85
2023/03/17 11:27:10;;;;;;;;;;;16.40;80.50;;;;;;5085863;27;19924;-85
2023/03/17 11:29:47;;;;;;;;;;;16.60;79.30;;;;;;5095986;28;19927;-86
2023/03/17 11:32:30;;;;;;;;;;;16.70;78.80;;;;;;5073365;27;19932;-86
2023/03/17 11:35:28;;;;;;;;;;;16.90;75.10;;;;;;5085091;28;20444;-86
2023/03/17 11:38:03;;;;;;;;;;;16.90;75.80;;;;;;5022322;28;19931;-86
2023/03/17 11:40:43;;;;;;;;;;;16.90;78.90;;;;;;5100048;28;19927;-87
2023/03/17 11:43:21;;;;;;;;;;;16.90;76.60;;;;;;5087587;27;19928;-87
2023/03/17 11:46:03;;;;;;;;;;;16.90;80.20;;;;;;5072827;28;19995;-86
2023/03/17 11:48:48;;;;;;;;;;;16.80;80.00;;;;;;5104387;27;20010;-86
2023/03/17 11:51:36;;;;;;;;;;;16.80;75.20;;;;;;5106908;28;19924;-86
2023/03/17 11:54:07;;;;;;;;;;;16.60;71.40;;;;;;5083252;28;19924;-87
2023/03/17 11:56:38;;;;;;;;;;;16.60;76.30;;;;;;5105174;28;19994;-86
2023/03/17 11:59:09;;;;;;;;;;;16.70;79.80;;;;;;5085996;28;19931;-87
2023/03/17 12:01:43;;;;;;;;;;;16.70;80.00;;;;;;5084715;28;19967;-86
2023/03/17 12:04:11;;;;;;;;;;;16.80;79.50;;;;;;5098116;27;19937;-86
2023/03/17 12:06:40;;;;;;;;;;;16.80;77.00;;;;;;5072937;28;19931;-86
2023/03/17 12:09:23;;;;;;;;;;;16.80;78.60;;;;;;5078540;28;19924;-86
2023/03/17 12:11:49;;;;;;;;;;;16.80;78.90;;;;;;5080507;28;19930;-86
2023/03/17 12:14:18;;;;;;;;;;;16.70;77.60;;;;;;5068675;27;19924;-81
2023/03/17 12:16:49;;;;;;;;;;;16.80;76.90;;;;;;5081577;28;19924;-80
2023/03/17 12:19:21;;;;;;;;;;;16.70;76.80;;;;;;5083512;28;20482;-80
2023/03/17 12:21:53;;;;;;;;;;;16.70;76.70;;;;;;5065971;28;20611;-79
2023/03/17 12:24:27;;;;;;;;;;;16.70;76.60;;;;;;5096019;28;19966;-80
2023/03/17 12:26:53;;;;;;;;;;;16.80;77.90;;;;;;5114002;28;19924;-80
2023/03/17 12:29:26;;;;;;;;;;;16.80;76.80;;;;;;5085588;28;19923;-80
2023/03/17 12:31:55;;;;;;;;;;;16.70;80.00;;;;;;5084512;28;19923;-79
2023/03/17 12:34:32;;;;;;;;;;;16.70;80.00;;;;;;5085300;28;19950;-80
2023/03/17 12:36:57;;;;;;;;;;;16.70;78.60;;;;;;5130314;27;19967;-80
2023/03/17 12:39:28;;;;;;;;;;;16.60;80.80;;;;;;5054274;28;19931;-80
2023/03/17 12:42:09;;;;;;;;;;;16.50;79.50;;;;;;5114709;28;19924;-80
2023/03/17 12:44:56;;;;;;;;;;;16.50;79.60;;;;;;5101181;28;19927;-80
2023/03/17 12:47:21;;;;;;;;;;;16.40;79.60;;;;;;5106298;28;19924;-80
2023/03/17 12:50:06;;;;;;;;;;;16.30;80.10;;;;;;5084340;28;20006;-80
2023/03/17 12:52:44;;;;;;;;;;;16.20;79.50;;;;;;5113763;28;19924;-80
2023/03/17 12:55:14;;;;;;;;;;;16.20;78.20;;;;;;5094737;28;19927;-80
2023/03/17 12:57:56;;;;;;;;;;;16.20;80.50;;;;;;5084945;28;19949;-80
2023/03/17 13:00:28;;;;;;;;;;;16.20;82.50;;;;;;5102818;28;19928;-80
2023/03/17 13:03:17;;;;;;;;;;;16.30;81.00;;;;;;5119601;28;19923;-80
2023/03/17 13:05:48;;;;;;;;;;;16.30;81.00;;;;;;5084427;28;20623;-80
2023/03/17 13:08:17;;;;;;;;;;;16.50;82.90;;;;;;5090674;28;19932;-80
2023/03/17 13:10:46;;;;;;;;;;;16.60;79.70;;;;;;5099553;28;19946;-80
2023/03/17 13:13:20;;;;;;;;;;;16.70;80.80;;;;;;5089366;28;19924;-81
2023/03/17 13:15:45;;;;;;;;;;;16.90;80.60;;;;;;5101027;28;19930;-80
2023/03/17 13:18:11;;;;;;;;;;;16.90;81.80;;;;;;5085057;28;19987;-80
2023/03/17 13:20:39;;;;;;;;;;;17.00;82.70;;;;;;5087083;28;19935;-79
2023/03/17 13:23:10;;;;;;;;;;;16.90;80.70;;;;;;5083653;28;20410;-73
2023/03/17 13:25:37;;;;;;;;;;;17.00;79.20;;;;;;5102278;28;19924;-73
2023/03/17 13:28:11;;;;;;;;;;;17.00;79.90;;;;;;5093079;28;19924;-73
2023/03/17 13:30:37;;;;;;;;;;;17.00;79.10;;;;;;5088412;28;19924;-73
2023/03/17 13:33:09;;;;;;;;;;;17.10;81.20;;;;;;5099402;28;19924;-73
2023/03/17 13:35:47;;;;;;;;;;;17.10;79.40;;;;;;5078119;28;19991;-76
2023/03/17 13:38:16;;;;;;;;;;;17.10;80.70;;;;;;5128968;28;20699;-75
2023/03/17 13:40:47;;;;;;;;;;;17.20;80.80;;;;;;5092569;28;19927;-75
2023/03/17 13:43:29;;;;;;;;;;;17.10;77.90;;;;;;5079452;28;19963;-75
2023/03/17 13:46:14;;;;;;;;;;;17.00;78.70;;;;;;5113715;28;19928;-76
2023/03/17 13:48:40;;;;;;;;;;;16.90;77.70;;;;;;5100153;28;19987;-76
2023/03/17 13:51:08;;;;;;;;;;;16.80;77.70;;;;;;5097049;27;20374;-75
2023/03/17 13:53:36;;;;;;;;;;;16.80;81.30;;;;;;5102021;28;19953;-76
2023/03/17 13:56:04;;;;;;;;;;;16.80;80.20;;;;;;5110941;28;19935;-75
2023/03/17 13:58:33;;;;;;;;;;;16.90;80.20;;;;;;5119872;27;19985;-76
2023/03/17 14:01:01;;;;;;;;;;;16.90;78.30;;;;;;5075636;28;19924;-76
2023/03/17 14:03:35;;;;;;;;;;;16.80;79.40;;;;;;5096867;28;19924;-78
2023/03/17 14:06:06;;;;;;;;;;;16.80;78.70;;;;;;5082934;27;19996;-79
2023/03/17 14:08:33;;;;;;;;;;;16.70;79.20;;;;;;5099435;28;19928;-79
2023/03/17 14:11:01;;;;;;;;;;;16.60;78.10;;;;;;5108113;27;19924;-80
2023/03/17 14:13:28;;;;;;;;;;;16.60;80.10;;;;;;5120642;27;19924;-80
2023/03/17 14:16:01;;;;;;;;;;;16.60;80.50;;;;;;5074304;28;19989;-79
2023/03/17 14:18:41;;;;;;;;;;;16.60;79.70;;;;;;5127613;27;19987;-80
2023/03/17 14:21:17;;;;;;;;;;;16.60;81.60;;;;;;5095709;27;20011;-80
2023/03/17 14:23:51;;;;;;;;;;;16.50;80.30;;;;;;5109508;28;19927;-79
2023/03/17 14:26:16;;;;;;;;;;;16.40;80.80;;;;;;5082306;28;20017;-80
2023/03/17 14:28:42;;;;;;;;;;;16.20;80.90;;;;;;5068292;28;19924;-74